Time;durP1;ratioP1;P1;durP2;ratioP2;P2;SDS_P1;SDS_P2;PMS_P1;PMS_P2;Temp;Humidity;BMP_temperature;BMP_pressure;BME280_temperature;BME280_humidity;BME280_pressure;Samples;Min_cycle;Max_cycle;Signal;HPM_P1;HPM_P2
2021/10/28 00:12:12;;;;;;;27.27;17.57;;;;;;;3.90;68.13;102685.44;6122754;23;20142;-59
2021/10/28 00:12:22;;;;;;;24.83;17.07;;;;;;;4.03;67.34;102689.03;6121790;23;20221;-59
2021/10/28 00:14:54;;;;;;;28.30;16.63;;;;;;;4.00;66.35;102687.00;6123051;23;20137;-59
2021/10/28 00:17:37;;;;;;;26.73;15.93;;;;;;;3.96;66.59;102678.59;6122305;23;20140;-59
2021/10/28 00:20:03;;;;;;;25.00;15.93;;;;;;;3.76;66.09;102665.75;6122730;23;20621;-59
2021/10/28 00:22:29;;;;;;;24.97;15.70;;;;;;;3.97;65.87;102690.41;6122039;23;20145;-59
2021/10/28 00:24:54;;;;;;;26.47;15.33;;;;;;;3.93;65.91;102690.28;6122293;23;20164;-59
2021/10/28 00:27:22;;;;;;;25.63;15.70;;;;;;;3.88;65.74;102692.41;6122502;23;20170;-59
2021/10/28 00:29:47;;;;;;;24.53;15.70;;;;;;;3.67;65.53;102656.81;6122683;23;20161;-59
2021/10/28 00:32:13;;;;;;;31.50;16.40;;;;;;;3.55;65.15;102634.03;6121560;23;20644;-60
2021/10/28 00:34:39;;;;;;;24.77;16.63;;;;;;;3.86;65.20;102692.75;6122413;23;20625;-59
2021/10/28 00:37:05;;;;;;;23.30;15.40;;;;;;;3.82;65.36;102685.53;6122241;23;20158;-59
2021/10/28 00:39:30;;;;;;;24.10;14.93;;;;;;;3.74;65.29;102676.25;6122397;23;20151;-59
2021/10/28 00:41:56;;;;;;;27.17;16.37;;;;;;;3.80;66.30;102690.56;6121833;23;20160;-59
2021/10/28 00:44:22;;;;;;;26.97;16.03;;;;;;;3.76;66.75;102684.97;6122510;23;20603;-59
2021/10/28 00:46:48;;;;;;;29.53;17.17;;;;;;;3.72;66.98;102685.94;6121774;23;20151;-59
2021/10/28 00:49:13;;;;;;;27.20;17.53;;;;;;;3.65;66.55;102670.03;6121796;23;20475;-59
2021/10/28 00:51:40;;;;;;;25.60;15.83;;;;;;;3.64;67.06;102675.88;6121437;23;20189;-59
2021/10/28 00:54:10;;;;;;;25.60;15.53;;;;;;;3.63;67.13;102668.75;6122356;23;20705;-59
2021/10/28 00:56:40;;;;;;;24.77;13.80;;;;;;;3.59;67.11;102671.38;6122003;23;20159;-59
2021/10/28 00:59:06;;;;;;;26.97;15.57;;;;;;;3.19;66.67;102609.19;6120791;23;20155;-59
2021/10/28 01:01:32;;;;;;;25.73;13.83;;;;;;;3.57;67.03;102661.88;6121533;23;20209;-59
2021/10/28 01:03:57;;;;;;;25.57;14.93;;;;;;;3.26;67.07;102612.19;6122458;23;20234;-59
2021/10/28 01:06:24;;;;;;;25.10;13.77;;;;;;;3.56;69.72;102658.38;6122117;23;20165;-59
2021/10/28 01:08:50;;;;;;;32.60;14.83;;;;;;;3.20;68.51;102611.59;6122405;23;20522;-59
2021/10/28 01:11:16;;;;;;;30.93;14.43;;;;;;;3.62;67.97;102667.97;6121559;23;20158;-59
2021/10/28 01:13:43;;;;;;;32.40;14.03;;;;;;;3.05;67.18;102573.03;6121724;23;20186;-59
2021/10/28 01:16:09;;;;;;;24.20;14.03;;;;;;;3.59;67.24;102660.41;6121896;23;20182;-59
2021/10/28 01:18:36;;;;;;;22.47;13.10;;;;;;;3.56;67.10;102668.50;6122230;23;20161;-59
2021/10/28 01:21:03;;;;;;;37.90;13.90;;;;;;;3.17;67.54;102611.44;6095454;23;20488;-59
2021/10/28 01:23:29;;;;;;;28.63;13.20;;;;;;;3.48;67.32;102661.97;6122259;23;20218;-59
2021/10/28 01:26:00;;;;;;;22.87;13.73;;;;;;;3.54;66.27;102663.38;6121917;23;20679;-59
2021/10/28 01:28:30;;;;;;;24.77;14.20;;;;;;;3.48;66.28;102663.91;6122785;23;20296;-59
2021/10/28 01:31:02;;;;;;;24.70;14.77;;;;;;;3.46;65.70;102664.25;6121818;23;20279;-59
2021/10/28 01:33:29;;;;;;;25.50;14.70;;;;;;;3.42;65.67;102659.75;6122073;23;20200;-59
2021/10/28 01:35:55;;;;;;;21.10;14.20;;;;;;;3.36;65.98;102661.09;6121693;23;20734;-59
2021/10/28 01:38:22;;;;;;;22.53;14.23;;;;;;;3.32;66.50;102658.22;6121971;23;20229;-59
2021/10/28 01:41:16;;;;;;;24.80;15.20;;;;;;;3.30;66.17;102662.44;6122774;23;20203;-59
2021/10/28 01:43:42;;;;;;;24.73;15.47;;;;;;;3.26;66.05;102666.97;6096560;23;20165;-60
2021/10/28 01:46:09;;;;;;;23.03;14.23;;;;;;;3.23;66.69;102664.94;6121765;23;20155;-59
2021/10/28 01:48:40;;;;;;;23.43;15.43;;;;;;;3.18;66.90;102660.44;6121991;23;20161;-60
2021/10/28 01:51:09;;;;;;;23.50;14.67;;;;;;;3.17;65.96;102661.56;6121637;23;20204;-60
2021/10/28 01:53:40;;;;;;;28.23;14.93;;;;;;;2.85;66.24;102614.91;6121967;23;20233;-60
2021/10/28 01:56:07;;;;;;;26.40;14.37;;;;;;;3.10;66.07;102658.56;6122380;23;20495;-60
2021/10/28 01:58:33;;;;;;;22.03;14.77;;;;;;;3.08;66.81;102649.88;6121895;23;20164;-60
2021/10/28 02:00:59;;;;;;;23.07;14.60;;;;;;;3.05;67.14;102641.50;6121196;23;20628;-59
2021/10/28 02:03:25;;;;;;;22.73;14.40;;;;;;;3.01;67.77;102646.03;6122229;23;20154;-60
2021/10/28 02:05:51;;;;;;;26.73;15.37;;;;;;;2.98;66.81;102658.47;6121461;23;20185;-60
2021/10/28 02:08:17;;;;;;;24.47;14.43;;;;;;;2.97;67.09;102656.88;6121998;23;20505;-59
2021/10/28 02:10:43;;;;;;;25.53;14.67;;;;;;;2.92;67.59;102672.72;6121913;23;20241;-60
2021/10/28 02:13:09;;;;;;;27.40;14.83;;;;;;;2.85;68.07;102655.97;6121069;23;20673;-59
2021/10/28 02:15:35;;;;;;;31.30;14.37;;;;;;;2.36;67.14;102588.31;6095662;23;20166;-60
2021/10/28 02:18:00;;;;;;;28.47;14.90;;;;;;;2.85;67.26;102662.28;6121919;23;20492;-59
2021/10/28 02:20:26;;;;;;;30.67;14.63;;;;;;;2.80;67.44;102657.00;6122118;23;20151;-59
2021/10/28 02:22:52;;;;;;;22.83;12.87;;;;;;;2.66;67.71;102622.75;6121539;23;20550;-60
2021/10/28 02:25:18;;;;;;;33.23;15.47;;;;;;;2.75;68.25;102635.28;6121544;23;20157;-59
2021/10/28 02:27:43;;;;;;;24.67;14.63;;;;;;;2.62;68.10;102619.09;6095585;23;20180;-59
2021/10/28 02:30:11;;;;;;;19.53;12.73;;;;;;;2.89;68.15;102660.47;6121979;23;20164;-60
2021/10/28 02:32:37;;;;;;;18.50;12.00;;;;;;;2.70;67.86;102635.47;6120518;23;20207;-60
2021/10/28 02:35:04;;;;;;;18.67;12.43;;;;;;;2.92;67.52;102661.75;6121433;23;20148;-60
2021/10/28 02:37:30;;;;;;;27.10;13.10;;;;;;;2.75;67.63;102654.44;6121881;23;20153;-60
2021/10/28 02:39:55;;;;;;;28.67;12.93;;;;;;;2.92;67.60;102668.03;6121677;23;20240;-59
2021/10/28 02:42:21;;;;;;;24.63;12.93;;;;;;;2.88;67.12;102658.06;6094565;23;20161;-60
2021/10/28 02:44:47;;;;;;;19.00;13.00;;;;;;;2.92;66.54;102667.22;6122038;23;20243;-60
2021/10/28 02:47:13;;;;;;;18.57;12.10;;;;;;;2.90;66.90;102666.75;6121059;23;20244;-60
2021/10/28 02:49:39;;;;;;;20.23;13.13;;;;;;;2.64;66.84;102633.22;6121404;23;20155;-59
2021/10/28 02:52:05;;;;;;;16.83;12.50;;;;;;;2.73;67.00;102655.91;6120676;23;20163;-60
2021/10/28 02:54:32;;;;;;;23.03;13.20;;;;;;;2.60;67.88;102638.56;6121568;23;20481;-60
2021/10/28 02:56:58;;;;;;;22.17;15.40;;;;;;;2.86;67.06;102674.00;6121111;23;20157;-60
2021/10/28 02:59:23;;;;;;;21.90;13.40;;;;;;;2.82;66.12;102676.63;6121402;23;20501;-59
2021/10/28 03:01:52;;;;;;;21.07;13.07;;;;;;;2.79;66.69;102682.75;6120608;23;20160;-60
2021/10/28 03:04:19;;;;;;;18.97;12.83;;;;;;;2.77;67.09;102685.00;6121863;23;20151;-60
2021/10/28 03:06:46;;;;;;;19.00;13.57;;;;;;;2.66;67.47;102667.34;6121327;23;20158;-59
2021/10/28 03:09:22;;;;;;;23.93;13.40;;;;;;;2.78;67.74;102678.41;6121343;23;20214;-59
2021/10/28 03:11:52;;;;;;;20.87;12.80;;;;;;;2.79;67.22;102679.22;6120224;23;20489;-60
2021/10/28 03:14:21;;;;;;;21.40;12.47;;;;;;;2.78;67.36;102683.88;6121599;23;20237;-60
2021/10/28 03:27:30;;;;;;;19.83;13.37;;;;;;;2.77;67.69;102697.91;6121476;23;20677;-60
2021/10/28 03:29:57;;;;;;;22.47;13.00;;;;;;;2.72;67.01;102698.88;6121306;23;20161;-59
2021/10/28 03:32:28;;;;;;;17.17;11.90;;;;;;;2.70;67.09;102701.16;6119739;23;20203;-60
2021/10/28 03:34:53;;;;;;;22.63;13.33;;;;;;;2.50;67.24;102682.72;6121082;23;20216;-60
2021/10/28 03:58:47;;;;;;;22.87;12.60;;;;;;;2.61;70.41;102710.53;6121107;23;20506;-59
2021/10/28 04:19:44;;;;;;;23.13;12.43;;;;;;;2.31;71.93;102674.09;6120734;23;20140;-59
2021/10/28 04:30:03;;;;;;;39.80;14.80;;;;;;;2.54;71.50;102724.75;6123009;23;20227;-62
2021/10/28 04:32:29;;;;;;;30.83;14.20;;;;;;;2.34;71.97;102676.19;6121647;23;20198;-59
2021/10/28 04:34:55;;;;;;;30.60;13.53;;;;;;;2.57;70.26;102717.81;6122166;23;20154;-59
2021/10/28 04:37:20;;;;;;;28.67;13.87;;;;;;;2.48;71.02;102706.09;6122124;23;20161;-59
2021/10/28 04:39:47;;;;;;;25.30;14.53;;;;;;;2.48;71.45;102692.41;6122390;23;20159;-60
2021/10/28 04:42:13;;;;;;;24.20;14.33;;;;;;;2.70;71.85;102717.59;6121478;23;20151;-60
2021/10/28 04:44:40;;;;;;;25.70;15.40;;;;;;;2.70;70.45;102716.78;6122413;23;20630;-60
2021/10/28 04:47:06;;;;;;;26.77;14.47;;;;;;;2.74;69.50;102720.47;6121964;23;20167;-60
2021/10/28 04:49:31;;;;;;;20.73;13.50;;;;;;;2.77;69.54;102717.88;6122673;23;20218;-59
2021/10/28 04:51:57;;;;;;;23.37;15.73;;;;;;;2.82;69.41;102722.38;6121524;23;20690;-59
2021/10/28 04:54:22;;;;;;;29.80;17.83;;;;;;;2.88;69.38;102732.00;6122020;23;20196;-59
2021/10/28 04:56:48;;;;;;;45.20;25.33;;;;;;;2.93;70.34;102727.13;6121966;23;20162;-60
2021/10/28 04:59:13;;;;;;;73.27;23.90;;;;;;;2.97;71.85;102730.81;6122698;23;20556;-59
2021/10/28 05:01:39;;;;;;;80.30;23.73;;;;;;;2.80;72.50;102705.47;6116196;23;20162;-60
2021/10/28 05:04:04;;;;;;;175.10;25.17;;;;;;;3.06;72.65;102728.84;6110377;23;20232;-60
2021/10/28 05:06:30;;;;;;;82.43;21.83;;;;;;;3.07;72.73;102735.94;6091976;23;20175;-60
2021/10/28 05:08:55;;;;;;;57.27;18.37;;;;;;;2.97;71.97;102727.31;6100204;23;20215;-59
2021/10/28 05:11:23;;;;;;;40.50;17.47;;;;;;;3.12;70.26;102746.69;6113608;23;20196;-63
2021/10/28 05:13:50;;;;;;;51.87;16.47;;;;;;;2.76;70.13;102691.63;6113009;23;20220;-64
2021/10/28 05:16:16;;;;;;;104.67;20.10;;;;;;;3.13;69.97;102742.81;6115356;23;20159;-60
2021/10/28 05:18:41;;;;;;;64.23;20.37;;;;;;;3.10;71.07;102748.16;6117230;23;20174;-60
2021/10/28 05:21:11;;;;;;;213.77;25.13;;;;;;;2.98;70.61;102739.84;6119566;23;20159;-60
2021/10/28 05:23:38;;;;;;;273.13;26.13;;;;;;;2.94;70.37;102758.06;6118780;23;20147;-60
2021/10/28 05:26:04;;;;;;;330.80;25.93;;;;;;;2.81;70.61;102759.09;6116709;23;20216;-60
2021/10/28 05:28:29;;;;;;;339.70;24.77;;;;;;;2.76;71.50;102762.00;6116734;23;20544;-60
2021/10/28 05:30:55;;;;;;;343.17;28.00;;;;;;;2.74;72.24;102758.81;6116830;23;20211;-60
2021/10/28 05:33:20;;;;;;;325.13;27.97;;;;;;;2.66;72.83;102756.88;6118654;23;20229;-60
2021/10/28 05:35:46;;;;;;;245.47;24.37;;;;;;;2.78;72.84;102776.97;6118126;23;20526;-60
2021/10/28 05:38:12;;;;;;;123.70;22.83;;;;;;;2.80;73.74;102769.25;6117751;23;20154;-60
2021/10/28 05:40:37;;;;;;;78.47;21.00;;;;;;;2.50;73.61;102707.38;6119191;23;20158;-60
2021/10/28 05:43:03;;;;;;;74.90;20.63;;;;;;;2.86;73.93;102765.19;6118603;23;20155;-60
2021/10/28 05:45:32;;;;;;;145.00;22.27;;;;;;;3.13;73.26;102803.09;6118534;23;20159;-60
2021/10/28 05:47:58;;;;;;;97.90;20.43;;;;;;;3.23;73.23;102794.50;6118731;23;20178;-60
2021/10/28 05:50:24;;;;;;;92.63;21.83;;;;;;;3.30;73.24;102804.94;6119299;23;20153;-60
2021/10/28 05:52:53;;;;;;;136.23;23.50;;;;;;;3.47;73.41;102802.91;6119214;23;20183;-60
2021/10/28 05:55:23;;;;;;;87.07;21.40;;;;;;;3.54;73.49;102803.19;6092323;23;20171;-60
2021/10/28 05:57:49;;;;;;;187.60;23.70;;;;;;;3.66;73.72;102796.97;6117157;23;20676;-61
2021/10/28 06:00:15;;;;;;;77.87;30.97;;;;;;;2.99;73.23;102708.59;6117723;23;20160;-61
2021/10/28 06:02:41;;;;;;;104.10;29.13;;;;;;;3.51;73.02;102790.16;6118226;23;20236;-61
2021/10/28 06:05:07;;;;;;;71.27;37.30;;;;;;;3.72;72.61;102821.13;6117680;23;20160;-61
2021/10/28 06:07:33;;;;;;;59.43;35.53;;;;;;;3.44;72.66;102739.72;6117103;23;20469;-60
2021/10/28 06:09:59;;;;;;;58.90;35.97;;;;;;;3.97;71.36;102803.69;6117101;23;20158;-59
2021/10/28 06:12:27;;;;;;;62.77;37.07;;;;;;;4.16;72.08;102811.44;6117978;23;20187;-62
2021/10/28 06:14:55;;;;;;;75.17;40.00;;;;;;;4.32;71.56;102812.41;6119441;23;20236;-61
2021/10/28 06:17:29;;;;;;;74.17;41.07;;;;;;;4.50;71.60;102819.31;6118224;23;20180;-62
2021/10/28 06:19:54;;;;;;;72.07;41.33;;;;;;;4.65;71.41;102819.50;6118312;23;20344;-62
2021/10/28 06:22:20;;;;;;;79.97;45.93;;;;;;;4.74;70.32;102825.72;6118421;23;20310;-61
2021/10/28 06:24:45;;;;;;;85.43;47.77;;;;;;;4.88;71.02;102822.66;6118940;23;20226;-62
2021/10/28 06:27:10;;;;;;;64.23;38.27;;;;;;;4.62;69.82;102781.72;6117551;23;20178;-62
2021/10/28 06:29:36;;;;;;;76.57;42.63;;;;;;;5.02;69.17;102817.63;6117753;23;20153;-62
2021/10/28 06:32:01;;;;;;;76.43;43.00;;;;;;;5.10;70.50;102819.47;6118491;23;20184;-62
2021/10/28 06:34:32;;;;;;;76.00;41.67;;;;;;;4.73;70.57;102754.63;6119109;23;20518;-62
2021/10/28 06:37:03;;;;;;;80.30;43.83;;;;;;;5.26;70.53;102828.63;6118291;23;20208;-62
2021/10/28 06:39:29;;;;;;;73.73;41.97;;;;;;;4.97;70.96;102765.66;6118962;23;20228;-61
2021/10/28 06:41:55;;;;;;;105.73;47.87;;;;;;;5.42;71.20;102829.53;6118628;23;20600;-61
2021/10/28 06:44:20;;;;;;;101.40;47.40;;;;;;;5.52;70.45;102826.31;6118588;23;20231;-61
2021/10/28 06:46:45;;;;;;;98.80;46.87;;;;;;;5.51;70.44;102836.53;6117939;23;20164;-62
2021/10/28 06:49:11;;;;;;;104.10;48.17;;;;;;;5.56;70.92;102836.31;6118105;23;20596;-62
2021/10/28 06:51:39;;;;;;;95.17;46.33;;;;;;;5.64;71.33;102832.63;6118464;23;20153;-62
2021/10/28 07:04:47;;;;;;;66.53;41.37;;;;;;;5.90;69.91;102841.31;6119034;23;20145;-61
2021/10/28 07:07:14;;;;;;;61.37;39.17;;;;;;;5.95;70.26;102840.28;6118632;23;20169;-61
2021/10/28 07:09:58;;;;;;;55.53;36.17;;;;;;;5.93;70.66;102821.38;6117012;23;20252;-61
2021/10/28 07:14:58;;;;;;;52.77;36.47;;;;;;;6.27;69.75;102833.75;6119335;23;20166;-62
2021/10/28 07:17:33;;;;;;;51.67;36.00;;;;;;;6.36;69.43;102837.19;6091562;23;20170;-61
2021/10/28 07:27:59;;;;;;;53.60;37.67;;;;;;;6.81;69.58;102834.88;6118023;23;20145;-61
2021/10/28 07:31:18;;;;;;;52.00;35.77;;;;;;;6.92;69.47;102833.22;6118124;23;20137;-62
2021/10/28 07:36:16;;;;;;;56.40;37.00;;;;;;;7.16;69.32;102842.09;6118344;23;20228;-61
2021/10/28 08:19:19;;;;;;;42.10;31.07;;;;;;;8.76;66.05;102807.38;6118076;23;20152;-62
2021/10/28 08:29:52;;;;;;;40.00;30.23;;;;;;;9.18;65.46;102799.81;6056971;23;20227;-62
2021/10/28 08:32:18;;;;;;;38.03;27.80;;;;;;;9.20;65.21;102794.69;6056335;23;20228;-61
2021/10/28 08:34:45;;;;;;;31.60;26.63;;;;;;;9.30;65.00;102792.09;6088423;23;20506;-62
2021/10/28 08:37:15;;;;;;;37.13;27.40;;;;;;;9.35;65.15;102797.31;6118687;23;20505;-62
2021/10/28 08:39:46;;;;;;;36.40;27.77;;;;;;;9.31;65.32;102793.69;6117563;23;20194;-62
2021/10/28 08:42:14;;;;;;;31.47;26.87;;;;;;;9.41;65.09;102792.25;6118288;23;20157;-62
2021/10/28 08:44:41;;;;;;;35.27;27.93;;;;;;;9.46;65.02;102803.81;6118420;23;20158;-61
2021/10/28 08:47:08;;;;;;;32.50;27.87;;;;;;;9.07;65.03;102704.78;6119219;23;20246;-61
2021/10/28 08:49:42;;;;;;;33.63;27.80;;;;;;;9.70;65.03;102797.88;6118060;23;20191;-61
2021/10/28 08:59:40;;;;;;;37.20;27.33;;;;;;;9.79;64.93;102794.81;6118024;23;20206;-61
2021/10/28 09:24:37;;;;;;;32.87;28.10;;;;;;;10.33;63.37;102792.34;6118709;23;20224;-61
2021/10/28 09:51:20;;;;;;;38.63;29.77;;;;;;;11.16;61.36;102772.97;6074744;23;20233;-61
2021/10/28 09:59:34;;;;;;;38.50;30.87;;;;;;;11.42;60.87;102764.44;6116377;23;20165;-61
2021/10/28 10:02:11;;;;;;;41.83;30.80;;;;;;;11.64;60.32;102752.28;6091244;23;20162;-61
2021/10/28 10:04:40;;;;;;;37.47;30.07;;;;;;;11.66;59.79;102749.94;6118655;23;20578;-62
2021/10/28 10:07:08;;;;;;;39.17;31.07;;;;;;;11.00;59.68;102635.69;6118341;23;20150;-61
2021/10/28 10:09:38;;;;;;;34.77;28.00;;;;;;;11.97;59.30;102752.06;6090700;23;20173;-61
2021/10/28 10:12:05;;;;;;;36.07;28.57;;;;;;;12.17;58.82;102742.22;6091887;23;20681;-61
2021/10/28 10:14:41;;;;;;;33.93;28.03;;;;;;;12.12;58.49;102736.22;6117982;23;20214;-61
2021/10/28 10:17:08;;;;;;;36.07;27.77;;;;;;;12.21;58.93;102739.44;6118596;23;20149;-61
2021/10/28 10:19:36;;;;;;;34.97;28.37;;;;;;;12.16;59.05;102737.84;6117044;23;20561;-61
2021/10/28 10:22:57;;;;;;;31.73;25.70;;;;;;;11.99;58.95;102738.56;6117270;23;20150;-62
2021/10/28 11:23:15;;;;;;;27.97;20.97;;;;;;;14.11;54.74;102624.56;6117273;23;20171;-62
2021/10/28 12:44:18;;;;;;;17.97;14.17;;;;;;;16.89;45.54;102544.31;6118229;23;20236;-62
2021/10/28 12:54:58;;;;;;;14.60;11.87;;;;;;;17.12;45.29;102535.88;6118632;23;20189;-61
2021/10/28 13:55:35;;;;;;;15.00;11.77;;;;;;;17.38;43.83;102509.69;6054556;23;20250;-62
2021/10/28 15:30:03;;;;;;;14.73;10.20;;;;;;;14.30;52.15;102492.97;6120240;23;20149;-62
2021/10/28 16:23:39;;;;;;;18.20;11.70;;;;;;;12.07;60.26;102495.63;6098332;23;20632;-62
2021/10/28 16:26:04;;;;;;;19.40;11.80;;;;;;;11.89;60.27;102482.94;6121066;23;20156;-62
2021/10/28 16:28:30;;;;;;;25.20;13.03;;;;;;;11.91;60.08;102498.00;6121754;23;20624;-62
2021/10/28 16:30:56;;;;;;;29.87;13.50;;;;;;;11.82;60.12;102500.38;6122369;23;20431;-62
2021/10/28 16:33:22;;;;;;;27.07;12.47;;;;;;;11.37;60.41;102448.31;6121689;23;20261;-62
2021/10/28 16:35:48;;;;;;;22.47;12.53;;;;;;;11.67;60.67;102503.53;6121073;23;20178;-61
2021/10/28 16:38:14;;;;;;;37.50;13.20;;;;;;;11.55;60.73;102495.53;6122128;23;20183;-62
2021/10/28 16:40:40;;;;;;;22.80;13.63;;;;;;;11.13;61.46;102451.81;6121283;23;20160;-62
2021/10/28 16:43:06;;;;;;;24.50;12.63;;;;;;;11.37;61.73;102509.38;6096133;23;20186;-62
2021/10/28 16:45:32;;;;;;;21.80;12.53;;;;;;;11.33;61.33;102511.34;6121853;23;20234;-62
2021/10/28 16:47:58;;;;;;;24.23;12.37;;;;;;;11.24;61.71;102516.50;6120680;23;20182;-62
2021/10/28 16:50:25;;;;;;;29.30;14.43;;;;;;;11.15;61.96;102513.28;6121118;23;20165;-62
2021/10/28 16:52:51;;;;;;;30.87;13.10;;;;;;;10.97;61.89;102498.53;6122235;23;20582;-62
2021/10/28 16:55:17;;;;;;;20.83;13.03;;;;;;;10.94;61.59;102504.88;6095276;23;20568;-62
2021/10/28 16:57:44;;;;;;;21.83;13.40;;;;;;;10.60;62.10;102467.47;6120864;23;20514;-62
2021/10/28 17:00:10;;;;;;;19.07;12.67;;;;;;;10.69;62.08;102500.38;6121035;23;20154;-62
2021/10/28 17:02:36;;;;;;;33.77;18.93;;;;;;;10.50;62.30;102486.81;6122209;23;20262;-62
2021/10/28 17:05:02;;;;;;;43.37;27.87;;;;;;;10.57;62.34;102511.81;6121656;23;20171;-62
2021/10/28 17:07:27;;;;;;;72.50;45.17;;;;;;;10.49;62.91;102510.16;6094743;23;20601;-62
2021/10/28 17:09:53;;;;;;;79.00;43.20;;;;;;;10.01;63.02;102450.44;6094570;23;20344;-62
2021/10/28 17:12:20;;;;;;;128.53;77.37;;;;;;;10.40;63.56;102512.50;6121219;23;20210;-61
2021/10/28 17:14:45;;;;;;;123.93;73.03;;;;;;;10.26;63.54;102501.31;6121859;23;20202;-61
2021/10/28 17:17:11;;;;;;;113.53;66.90;;;;;;;10.26;63.15;102510.41;6120219;23;20626;-61
2021/10/28 17:19:37;;;;;;;105.50;62.53;;;;;;;10.17;63.79;102515.50;6121338;23;20154;-62
2021/10/28 17:22:03;;;;;;;86.13;51.60;;;;;;;9.76;63.78;102464.09;6121326;23;20561;-62
2021/10/28 17:24:38;;;;;;;79.97;48.73;;;;;;;10.01;63.86;102500.28;6121573;23;20186;-62
2021/10/28 17:27:04;;;;;;;71.43;44.23;;;;;;;10.06;63.87;102517.38;6120468;23;20490;-62
2021/10/28 17:29:30;;;;;;;80.70;45.30;;;;;;;9.76;64.00;102474.34;6121531;23;20159;-62
2021/10/28 17:31:56;;;;;;;84.00;50.03;;;;;;;9.99;63.60;102513.72;6120688;23;20189;-61
2021/10/28 17:34:27;;;;;;;81.70;51.03;;;;;;;9.79;63.47;102488.22;6121771;23;20151;-62
2021/10/28 17:36:56;;;;;;;70.97;47.07;;;;;;;9.90;63.78;102522.34;6119998;23;20247;-62
2021/10/28 17:39:23;;;;;;;74.87;49.10;;;;;;;9.87;64.01;102516.78;6121207;23;20165;-62
2021/10/28 17:41:50;;;;;;;83.37;47.93;;;;;;;9.46;64.29;102457.88;6121314;23;20607;-61
2021/10/28 17:44:17;;;;;;;43.17;31.87;;;;;;;9.17;65.05;102450.44;6120818;23;20182;-61
2021/10/28 17:46:43;;;;;;;44.10;30.83;;;;;;;9.43;64.61;102486.28;6120201;23;20154;-61
2021/10/28 17:49:09;;;;;;;46.30;32.40;;;;;;;9.22;64.37;102449.31;6121060;23;20154;-61
2021/10/28 17:51:36;;;;;;;60.20;38.13;;;;;;;9.60;64.37;102504.25;6121052;23;20584;-61
2021/10/28 17:54:03;;;;;;;54.90;36.67;;;;;;;8.90;64.66;102404.72;6121293;23;20673;-61
2021/10/28 17:56:30;;;;;;;59.00;37.63;;;;;;;9.43;64.59;102502.13;6120452;23;20162;-61
2021/10/28 17:58:56;;;;;;;57.63;37.00;;;;;;;9.24;64.47;102467.13;6121069;23;20157;-61
2021/10/28 18:01:25;;;;;;;76.83;45.20;;;;;;;9.12;63.72;102466.59;6095121;23;20226;-61
2021/10/28 18:03:56;;;;;;;61.23;38.93;;;;;;;9.38;64.58;102517.06;6120742;23;20192;-61
2021/10/28 18:06:21;;;;;;;60.90;39.60;;;;;;;9.33;64.60;102509.09;6119546;23;20190;-61
2021/10/28 18:08:47;;;;;;;65.13;41.43;;;;;;;8.98;64.62;102460.91;6121101;23;20158;-61
2021/10/28 18:11:13;;;;;;;60.50;37.93;;;;;;;9.28;63.90;102514.97;6120735;23;20162;-61
2021/10/28 18:13:38;;;;;;;57.97;40.00;;;;;;;9.23;63.93;102515.31;6120976;23;20489;-61
2021/10/28 18:16:05;;;;;;;67.30;41.07;;;;;;;8.87;64.41;102463.53;6119978;23;20158;-61
2021/10/28 18:18:32;;;;;;;66.37;42.90;;;;;;;8.68;64.59;102452.63;6094967;23;20162;-61
2021/10/28 18:20:59;;;;;;;75.87;49.63;;;;;;;9.07;64.75;102520.25;6120487;23;20207;-61
2021/10/28 18:23:25;;;;;;;56.97;36.73;;;;;;;8.65;64.21;102460.84;6120997;23;20644;-61
2021/10/28 18:25:51;;;;;;;67.00;41.57;;;;;;;8.98;63.57;102521.72;6119212;23;20154;-61
2021/10/28 18:28:17;;;;;;;59.87;36.83;;;;;;;8.91;63.60;102521.66;6121077;23;20627;-61
2021/10/28 18:30:42;;;;;;;57.87;35.73;;;;;;;8.88;63.97;102530.69;6120218;23;20152;-61
2021/10/28 18:33:10;;;;;;;62.77;38.50;;;;;;;8.56;64.07;102479.72;6121200;23;20545;-61
2021/10/28 18:35:37;;;;;;;68.57;39.37;;;;;;;8.48;64.30;102475.25;6120585;23;20159;-61
2021/10/28 18:38:02;;;;;;;63.17;40.23;;;;;;;8.67;64.50;102516.56;6119733;23;20602;-61
2021/10/28 18:40:28;;;;;;;51.90;35.57;;;;;;;8.61;64.65;102521.63;6121127;23;20158;-61
2021/10/28 18:42:54;;;;;;;67.83;39.10;;;;;;;8.50;64.70;102506.09;6120724;23;20185;-61
2021/10/28 18:45:20;;;;;;;57.33;36.63;;;;;;;8.43;64.62;102506.75;6121289;23;20155;-61
2021/10/28 18:47:45;;;;;;;61.07;35.97;;;;;;;8.42;64.59;102530.03;6119104;23;20498;-61
2021/10/28 18:50:11;;;;;;;53.53;36.10;;;;;;;8.17;64.71;102489.34;6120690;23;20183;-61
2021/10/28 18:52:36;;;;;;;52.83;36.23;;;;;;;8.15;65.19;102502.75;6120367;23;20161;-61
2021/10/28 18:55:03;;;;;;;56.23;37.43;;;;;;;8.26;65.30;102523.84;6094421;23;20158;-61
2021/10/28 18:57:30;;;;;;;75.70;50.97;;;;;;;8.22;65.14;102527.72;6119491;23;20241;-61
2021/10/28 18:59:56;;;;;;;64.13;42.90;;;;;;;7.85;65.08;102488.03;6121072;23;20235;-61
2021/10/28 19:02:24;;;;;;;59.03;40.67;;;;;;;7.99;66.42;102527.72;6120142;23;20183;-61
2021/10/28 19:04:50;;;;;;;56.80;37.47;;;;;;;8.02;66.16;102528.94;6094882;23;20263;-61
2021/10/28 19:07:15;;;;;;;40.83;30.47;;;;;;;7.56;67.22;102466.63;6119340;23;20202;-61
2021/10/28 19:09:41;;;;;;;40.70;29.67;;;;;;;7.91;68.32;102531.53;6120017;23;20167;-61
2021/10/28 19:12:07;;;;;;;46.50;31.13;;;;;;;7.66;68.08;102502.72;6120502;23;20554;-61
2021/10/28 19:14:35;;;;;;;46.97;33.97;;;;;;;7.86;68.35;102531.84;6094434;23;20163;-60
2021/10/28 19:17:00;;;;;;;49.83;32.70;;;;;;;7.86;68.07;102531.03;6119666;23;20159;-61
2021/10/28 19:19:26;;;;;;;42.93;29.73;;;;;;;7.87;68.02;102540.91;6120675;23;20608;-61
2021/10/28 19:21:51;;;;;;;50.63;35.27;;;;;;;7.87;67.52;102546.44;6120533;23;20158;-61
2021/10/28 19:24:17;;;;;;;47.17;34.63;;;;;;;7.81;66.31;102545.16;6119809;23;20715;-61
2021/10/28 19:26:42;;;;;;;45.77;30.70;;;;;;;7.53;66.48;102508.78;6119671;23;20181;-61
2021/10/28 19:29:09;;;;;;;58.80;36.40;;;;;;;7.51;66.37;102511.09;6120515;23;20156;-61
2021/10/28 19:31:44;;;;;;;56.23;35.17;;;;;;;7.71;66.38;102541.03;6120468;23;20158;-61
2021/10/28 19:34:10;;;;;;;31.57;23.40;;;;;;;7.66;66.33;102552.38;6094014;23;20552;-61
2021/10/28 19:36:40;;;;;;;34.43;24.50;;;;;;;7.29;66.26;102498.06;6093705;23;20163;-61
2021/10/28 19:45:27;;;;;;;44.07;27.93;;;;;;;7.22;66.80;102520.78;6015790;23;20177;-61
2021/10/28 19:47:53;;;;;;;35.77;23.17;;;;;;;7.35;68.11;102566.38;6119037;23;20147;-60
2021/10/28 19:50:18;;;;;;;33.17;22.33;;;;;;;7.29;67.82;102547.69;6120210;23;20159;-61
2021/10/28 19:52:44;;;;;;;36.57;25.27;;;;;;;7.33;66.65;102552.13;6120850;23;20526;-61
2021/10/28 19:55:11;;;;;;;37.37;26.07;;;;;;;7.32;66.07;102556.03;6095709;23;20538;-61
2021/10/28 19:57:39;;;;;;;38.67;24.93;;;;;;;7.28;65.87;102551.63;6121381;23;20674;-61
2021/10/28 20:00:20;;;;;;;40.03;26.00;;;;;;;7.21;65.86;102554.22;6121908;23;20163;-61
2021/10/28 20:07:58;;;;;;;41.77;27.33;;;;;;;7.03;65.50;102561.34;6120832;23;20185;-61
2021/10/28 20:21:07;;;;;;;43.60;28.67;;;;;;;6.59;66.36;102543.41;6122547;23;20541;-61
2021/10/28 20:23:33;;;;;;;44.73;30.83;;;;;;;6.25;66.63;102492.69;6121532;23;20185;-61
2021/10/28 20:25:58;;;;;;;42.17;30.00;;;;;;;6.60;66.44;102550.53;6094920;23;20169;-61
2021/10/28 20:28:25;;;;;;;40.53;29.43;;;;;;;6.64;66.53;102563.25;6121841;23;20159;-61
2021/10/28 20:31:00;;;;;;;41.77;29.13;;;;;;;6.63;66.13;102563.59;6121931;23;20155;-60
2021/10/28 20:33:30;;;;;;;43.50;29.27;;;;;;;6.60;65.49;102565.13;6121973;23;20198;-61
2021/10/28 20:38:33;;;;;;;44.20;29.50;;;;;;;6.49;65.18;102557.75;6122426;23;20501;-61
2021/10/28 20:40:59;;;;;;;51.83;37.07;;;;;;;6.41;66.71;102556.00;6121654;23;20233;-61
2021/10/28 20:43:25;;;;;;;42.37;29.83;;;;;;;6.11;66.65;102510.81;6121821;23;20182;-61
2021/10/28 20:45:50;;;;;;;42.20;30.43;;;;;;;6.02;67.40;102510.19;6120349;23;20161;-61